Alton, Maine
Current Conditions -  °F | °C
As of 9:53 PM on Monday 20 Oct 2014 (Local Time) from KBGR Reporting Station
Broken Clouds Broken Clouds  
Wind Chill:   Ceiling: 12000
Heat Index:   Visibility: 10mi
Dew Point: -1°   Wind: 3mph
Humidity: 73%   Direction: 280°W
Pressure: 29.98"   Gusts: NA
Location:  45.0236°N, 68.7394°W
Report Text: KBGR 210153Z 28003KT 10SM BKN120 03/M01 A2998 RMK AO2 SLP153 T00331011
Loading
Personal Weather Stations






























Interactive Weather Map New forecast layout! Learn more

10-Day Weather Forecast

Advertisements
Track Severe Weather on mobile